Terminal Aerodrome Forecast
Issued by NWS

Home | Current Version | Previous Version | Text Only | Print | Product List | Glossary On
Versions: 1 2 3 4 5 6 7 8 9 10 11 12 13
000
FTUS41 KPBZ 232320
TAFBVI
TAF
KBVI 232320Z 2400/2424 25014G25KT P6SM VCSH OVC025
      TEMPO 2400/2403 OVC015
     FM240500 27011G20KT P6SM OVC025
     FM241000 28009KT P6SM OVC025
     FM241900 29007KT P6SM BKN025
      AMD NOT SKED 2402/2412=

USA.gov is the U.S. government's official web portal to all federal, state and local government web resources and services.